Time;durP1;ratioP1;P1;durP2;ratioP2;P2;SDS_P1;SDS_P2;PMS_P1;PMS_P2;Temp;Humidity;BMP_temperature;BMP_pressure;BME280_temperature;BME280_humidity;BME280_pressure;Samples;Min_cycle;Max_cycle;Signal;HPM_P1;HPM_P2
2023/03/02 00:01:48;;;;;;;54.70;34.70;;;;;;;-1.09;100.00;160291.22;5069886;28;20037;-64
2023/03/02 00:04:39;;;;;;;62.22;39.92;;;;;;;-1.12;100.00;160283.16;5072123;28;20029;-64
2023/03/02 00:07:08;;;;;;;65.80;38.78;;;;;;;-1.17;100.00;160271.09;5047093;28;20040;-64
2023/03/02 00:09:34;;;;;;;63.72;40.60;;;;;;;-1.19;100.00;160264.41;5051621;28;20036;-64
2023/03/02 00:12:00;;;;;;;69.60;43.15;;;;;;;-1.21;100.00;160259.06;5070329;28;20052;-64
2023/03/02 00:14:26;;;;;;;66.47;39.90;;;;;;;-1.23;100.00;160253.72;5070871;28;20040;-64
2023/03/02 00:16:51;;;;;;;73.57;43.28;;;;;;;-1.27;100.00;160244.34;5069769;28;20074;-64
2023/03/02 00:19:16;;;;;;;66.35;41.47;;;;;;;-1.32;100.00;160232.31;5071560;28;20031;-64
2023/03/02 00:21:42;;;;;;;61.95;39.45;;;;;;;-1.37;100.00;160218.88;5069447;28;20518;-64
2023/03/02 00:24:07;;;;;;;67.28;41.88;;;;;;;-1.41;100.00;160208.19;5071658;28;20036;-64
2023/03/02 00:26:33;;;;;;;70.28;42.30;;;;;;;-1.42;100.00;160205.50;5069526;28;20523;-63
2023/03/02 00:28:59;;;;;;;81.65;45.88;;;;;;;-1.31;100.00;160235.00;5070313;28;20028;-63
2023/03/02 00:31:24;;;;;;;73.75;46.00;;;;;;;-1.25;100.00;160248.38;5069801;28;20042;-63
2023/03/02 00:33:53;;;;;;;82.25;50.03;;;;;;;-1.25;100.00;160248.38;5071123;28;20024;-63
2023/03/02 00:36:20;;;;;;;64.80;38.83;;;;;;;-1.21;100.00;160260.41;5069424;28;20211;-63
2023/03/02 00:38:46;;;;;;;76.45;45.40;;;;;;;-1.21;100.00;160259.06;5071130;28;20093;-63
2023/03/02 00:41:12;;;;;;;90.80;51.13;;;;;;;-1.18;100.00;160267.09;5068709;28;20083;-63
2023/03/02 00:43:38;;;;;;;80.57;48.05;;;;;;;-1.14;100.00;160277.78;5070330;28;20499;-63
2023/03/02 00:46:10;;;;;;;99.93;54.35;;;;;;;-1.10;100.00;160288.53;5069150;28;20040;-63
2023/03/02 00:48:36;;;;;;;93.10;49.92;;;;;;;-1.10;100.00;160288.53;5070710;28;20024;-63
2023/03/02 00:51:01;;;;;;;85.88;49.97;;;;;;;-1.15;100.00;160275.09;5068866;28;20565;-63
2023/03/02 00:53:26;;;;;;;93.40;51.00;;;;;;;-1.17;100.00;160269.78;5071200;28;20391;-63
2023/03/02 00:55:53;;;;;;;89.88;53.55;;;;;;;-1.15;100.00;160275.09;5068995;28;20056;-62
2023/03/02 00:58:20;;;;;;;97.95;57.55;;;;;;;-1.13;100.00;160280.47;5070444;28;20028;-63
2023/03/02 01:00:45;;;;;;;88.93;50.33;;;;;;;-1.16;100.00;160272.47;5069454;28;20503;-63
2023/03/02 01:03:10;;;;;;;102.18;58.13;;;;;;;-1.19;100.00;160265.75;5071172;28;20081;-63
2023/03/02 01:05:36;;;;;;;85.50;53.90;;;;;;;-1.20;100.00;160261.75;5068838;28;20094;-63
2023/03/02 01:08:02;;;;;;;85.90;53.58;;;;;;;-1.15;100.00;160275.09;5071225;28;20028;-63
2023/03/02 01:10:27;;;;;;;100.07;57.05;;;;;;;-1.20;100.00;160261.75;5068980;28;20434;-63
2023/03/02 01:12:52;;;;;;;98.32;53.40;;;;;;;-1.21;100.00;160259.06;5070357;28;20016;-63
2023/03/02 01:15:18;;;;;;;105.40;57.92;;;;;;;-1.32;100.00;160232.31;5069465;28;20036;-63
2023/03/02 01:17:43;;;;;;;97.28;54.35;;;;;;;-1.25;100.00;160248.38;5071032;28;20035;-63
2023/03/02 01:20:10;;;;;;;99.20;54.00;;;;;;;-1.31;100.00;160235.00;5068935;28;20045;-61
2023/03/02 01:22:35;;;;;;;110.68;55.28;;;;;;;-1.34;100.00;160226.94;5070116;28;20039;-60
2023/03/02 01:25:01;;;;;;;100.00;58.13;;;;;;;-1.40;100.00;160210.88;5063271;28;20411;-61
2023/03/02 01:27:26;;;;;;;110.65;61.97;;;;;;;-1.41;100.00;160208.19;5070360;28;20111;-60
2023/03/02 01:29:51;;;;;;;108.75;57.38;;;;;;;-1.43;100.00;160202.81;5069063;28;20044;-61
2023/03/02 01:32:17;;;;;;;99.75;53.40;;;;;;;-1.40;100.00;160210.88;5070638;28;20017;-61
2023/03/02 01:34:42;;;;;;;119.85;58.22;;;;;;;-1.36;100.00;160221.56;5068596;28;20016;-60
2023/03/02 01:37:08;;;;;;;116.28;63.42;;;;;;;-1.37;100.00;160217.56;5070756;28;20013;-61
2023/03/02 01:39:33;;;;;;;114.30;62.30;;;;;;;-1.42;100.00;160204.19;5068324;28;20039;-61
2023/03/02 01:41:58;;;;;;;99.28;56.70;;;;;;;-1.43;100.00;160202.81;5069568;28;20056;-62
2023/03/02 01:44:38;;;;;;;114.78;58.00;;;;;;;-1.42;100.00;160205.50;5070542;28;20467;-61
2023/03/02 01:47:20;;;;;;;115.75;60.97;;;;;;;-1.46;100.00;160194.81;5068935;28;20040;-62
2023/03/02 01:49:51;;;;;;;114.55;56.63;;;;;;;-1.50;100.00;160184.09;5068054;28;20035;-63
2023/03/02 01:52:17;;;;;;;108.50;55.13;;;;;;;-1.52;100.00;160178.72;5070702;28;20066;-63
2023/03/02 01:54:48;;;;;;;111.72;53.88;;;;;;;-1.55;100.00;160170.72;5068886;28;20028;-63
2023/03/02 01:57:15;;;;;;;126.97;58.97;;;;;;;-1.57;100.00;160165.34;5070524;28;20020;-63
2023/03/02 01:59:41;;;;;;;123.50;60.38;;;;;;;-1.62;100.00;160154.66;5068740;28;20097;-63
2023/03/02 02:02:09;;;;;;;119.68;59.03;;;;;;;-1.65;100.00;160145.28;5070114;28;20100;-63
2023/03/02 02:04:36;;;;;;;111.43;58.35;;;;;;;-1.72;100.00;160127.88;5071905;28;20035;-63
2023/03/02 02:07:06;;;;;;;108.72;56.60;;;;;;;-1.63;100.00;160151.97;5073975;28;20067;-63
2023/03/02 02:09:35;;;;;;;117.75;60.92;;;;;;;-1.61;100.00;160157.34;5072580;28;20020;-61
2023/03/02 02:12:01;;;;;;;127.18;63.35;;;;;;;-1.60;100.00;160159.97;5073589;28;20601;-61
2023/03/02 02:14:27;;;;;;;132.35;64.70;;;;;;;-1.60;100.00;160159.97;5073834;28;20114;-62
2023/03/02 02:16:53;;;;;;;116.47;59.30;;;;;;;-1.57;100.00;160165.34;5072036;28;20626;-61
2023/03/02 02:19:50;;;;;;;115.57;58.20;;;;;;;-1.64;100.00;160149.28;5073922;28;20020;-62
2023/03/02 02:22:27;;;;;;;128.32;58.08;;;;;;;-1.70;100.00;160133.25;5072658;28;20407;-62
2023/03/02 02:25:00;;;;;;;127.97;58.63;;;;;;;-1.72;100.00;160127.88;5072523;28;20036;-64
2023/03/02 02:27:32;;;;;;;122.20;59.95;;;;;;;-1.73;100.00;160123.88;5073444;28;20024;-64
2023/03/02 02:29:59;;;;;;;138.05;70.40;;;;;;;-1.76;100.00;160117.19;5072463;28;20555;-64
2023/03/02 02:32:31;;;;;;;128.82;61.97;;;;;;;-1.76;100.00;160118.50;5073866;28;20025;-64
2023/03/02 02:35:06;;;;;;;145.77;63.53;;;;;;;-1.74;100.00;160122.50;5072079;28;20560;-64
2023/03/02 02:37:53;;;;;;;134.65;55.90;;;;;;;-1.72;100.00;160127.88;5073562;28;20066;-64
2023/03/02 02:40:39;;;;;;;141.52;62.80;;;;;;;-1.75;100.00;160119.88;5071730;28;20498;-64
2023/03/02 02:43:05;;;;;;;139.32;62.28;;;;;;;-1.81;100.00;160103.78;5071821;28;20032;-64
2023/03/02 02:45:31;;;;;;;136.82;60.05;;;;;;;-1.90;100.00;160079.72;5071264;28;20063;-64
2023/03/02 02:47:57;;;;;;;135.20;60.05;;;;;;;-1.96;100.00;160066.31;5073599;28;20043;-64
2023/03/02 02:50:30;;;;;;;138.90;62.80;;;;;;;-2.06;100.00;160039.56;5071810;28;20036;-64
2023/03/02 02:53:05;;;;;;;145.82;64.07;;;;;;;-1.99;100.00;160058.31;5073678;28;20024;-64
2023/03/02 02:55:32;;;;;;;127.85;57.15;;;;;;;-2.00;100.00;160055.63;5071295;28;20058;-64
2023/03/02 02:58:01;;;;;;;127.25;62.22;;;;;;;-1.97;100.00;160062.31;5073093;28;20031;-64
2023/03/02 03:00:26;;;;;;;;;;;;;;;-2.00;100.00;160055.63;5072464;28;20037;-63
2023/03/02 03:03:03;;;;;;;121.43;56.83;;;;;;;-2.00;100.00;160055.63;5073118;28;19919;-63
2023/03/02 03:05:29;;;;;;;127.00;53.50;;;;;;;-2.02;100.00;160050.25;5071371;28;20051;-63
2023/03/02 03:08:29;;;;;;;126.90;56.58;;;;;;;-2.05;100.00;160042.25;5073137;28;20086;-62
2023/03/02 03:10:55;;;;;;;121.80;53.53;;;;;;;-2.10;100.00;160030.22;5070788;28;20075;-62
2023/03/02 03:13:21;;;;;;;135.13;58.92;;;;;;;-2.12;100.00;160023.47;5072499;28;20016;-62
2023/03/02 03:15:47;;;;;;;136.25;58.83;;;;;;;-2.18;100.00;160007.44;5071386;28;20110;-63
2023/03/02 03:18:12;;;;;;;143.02;68.10;;;;;;;-2.22;100.00;159996.75;5072686;28;20063;-63
2023/03/02 03:20:40;;;;;;;138.27;60.90;;;;;;;-2.20;100.00;160002.13;5071261;28;20098;-63
2023/03/02 03:23:05;;;;;;;159.98;64.70;;;;;;;-2.31;100.00;159975.34;5073220;28;20067;-63
2023/03/02 03:25:30;;;;;;;131.27;61.15;;;;;;;-2.33;100.00;159969.97;5070849;28;20041;-63
2023/03/02 03:27:56;;;;;;;149.13;61.13;;;;;;;-2.51;100.00;159923.16;5072814;28;20028;-63
2023/03/02 03:30:21;;;;;;;142.38;63.30;;;;;;;-2.41;100.00;159948.56;5071456;28;20055;-63
2023/03/02 03:32:46;;;;;;;152.15;65.20;;;;;;;-2.38;100.00;159956.63;5073065;28;20016;-64
2023/03/02 03:35:12;;;;;;;140.88;60.80;;;;;;;-2.38;100.00;159956.63;5072289;28;20028;-63
2023/03/02 03:37:40;;;;;;;140.50;65.38;;;;;;;-2.36;100.00;159961.97;5070814;28;20051;-64
2023/03/02 03:40:08;;;;;;;144.38;60.80;;;;;;;-2.39;100.00;159953.94;5072016;28;20773;-64
2023/03/02 03:42:34;;;;;;;158.90;64.07;;;;;;;-2.44;100.00;159940.56;5069949;28;20063;-64
2023/03/02 03:45:00;;;;;;;146.02;61.75;;;;;;;-2.39;100.00;159953.94;5072851;28;20028;-64
2023/03/02 03:47:25;;;;;;;159.80;67.03;;;;;;;-2.39;100.00;159953.94;5071007;28;20393;-64
2023/03/02 03:49:51;;;;;;;134.07;60.67;;;;;;;-2.43;100.00;159943.25;5071916;28;20021;-64
2023/03/02 03:52:16;;;;;;;148.52;60.10;;;;;;;-2.52;100.00;159919.16;5071085;28;20028;-63
2023/03/02 03:54:41;;;;;;;135.93;58.67;;;;;;;-2.58;100.00;159905.81;5072248;28;20028;-64
2023/03/02 03:57:07;;;;;;;127.47;58.45;;;;;;;-2.69;100.00;159876.34;5070084;28;20059;-64
2023/03/02 03:59:34;;;;;;;141.27;60.42;;;;;;;-2.64;100.00;159889.72;5072202;28;20017;-63
2023/03/02 04:02:01;;;;;;;160.93;64.75;;;;;;;-2.73;100.00;159867.00;5070689;28;20033;-63
2023/03/02 04:04:30;;;;;;;139.57;63.30;;;;;;;-2.74;100.00;159864.31;5071901;28;20029;-64
2023/03/02 04:06:56;;;;;;;149.80;58.13;;;;;;;-2.72;100.00;159868.34;5070125;28;20551;-64
2023/03/02 04:09:22;;;;;;;134.68;58.90;;;;;;;-2.76;100.00;159857.63;5072163;28;20107;-64
2023/03/02 04:11:50;;;;;;;149.52;62.08;;;;;;;-2.75;100.00;159861.63;5070023;28;20047;-64
2023/03/02 04:14:16;;;;;;;153.63;59.50;;;;;;;-2.75;100.00;159861.63;5071998;28;20138;-64
2023/03/02 04:16:43;;;;;;;146.43;63.22;;;;;;;-2.76;100.00;159859.00;5070390;28;20040;-64
2023/03/02 04:19:10;;;;;;;161.50;60.03;;;;;;;-2.82;100.00;159842.91;5071624;28;20102;-64
2023/03/02 04:21:41;;;;;;;172.57;66.32;;;;;;;-2.85;100.00;159834.91;5070123;28;20043;-64
2023/03/02 04:24:07;;;;;;;156.20;62.53;;;;;;;-2.90;100.00;159822.88;5071726;28;20036;-63
2023/03/02 04:26:34;;;;;;;130.60;55.72;;;;;;;-2.94;100.00;159812.16;5068861;28;20045;-63
2023/03/02 04:28:59;;;;;;;129.68;55.25;;;;;;;-2.93;100.00;159814.81;5071713;28;20032;-64
2023/03/02 04:31:24;;;;;;;161.15;61.13;;;;;;;-2.93;100.00;159813.50;5070280;28;20032;-65
2023/03/02 04:33:50;;;;;;;148.70;55.83;;;;;;;-2.93;100.00;159814.81;5071139;28;20024;-64
2023/03/02 04:36:15;;;;;;;126.53;54.42;;;;;;;-2.94;100.00;159812.16;5068148;28;20040;-64
2023/03/02 04:38:40;;;;;;;153.70;60.65;;;;;;;-3.01;100.00;159793.44;5071164;28;20021;-64
2023/03/02 04:41:06;;;;;;;145.77;59.97;;;;;;;-3.02;100.00;159790.81;5069591;28;20056;-64
2023/03/02 04:43:31;;;;;;;122.00;56.25;;;;;;;-3.07;100.00;159777.41;5071305;28;20028;-64
2023/03/02 04:45:57;;;;;;;147.23;57.05;;;;;;;-3.14;100.00;159760.03;5069857;28;20048;-65
2023/03/02 04:48:23;;;;;;;130.63;56.35;;;;;;;-3.17;100.00;159752.00;5071184;28;20073;-65
2023/03/02 04:50:48;;;;;;;158.40;56.90;;;;;;;-3.15;100.00;159756.00;5069712;28;20044;-63
2023/03/02 04:53:14;;;;;;;147.07;60.60;;;;;;;-3.22;100.00;159739.97;5071246;28;20024;-64
2023/03/02 04:55:39;;;;;;;139.90;55.15;;;;;;;-3.16;100.00;159753.38;5069263;28;20098;-64
2023/03/02 04:58:06;;;;;;;134.65;56.25;;;;;;;-3.21;100.00;159742.66;5071235;28;20029;-64
2023/03/02 05:00:34;;;;;;;143.52;57.33;;;;;;;-3.18;100.00;159749.31;5069647;28;20037;-64
2023/03/02 05:03:00;;;;;;;141.13;61.20;;;;;;;-3.20;100.00;159745.31;5070548;28;20028;-62
2023/03/02 05:05:26;;;;;;;123.50;52.28;;;;;;;-3.16;100.00;159753.38;5069368;28;20491;-62
2023/03/02 05:07:52;;;;;;;128.50;51.90;;;;;;;-3.12;100.00;159764.03;5070800;28;20020;-62
2023/03/02 05:10:19;;;;;;;156.73;57.47;;;;;;;-3.12;100.00;159764.03;5068982;28;20395;-62
2023/03/02 05:12:56;;;;;;;137.65;53.97;;;;;;;-3.09;100.00;159772.09;5069623;28;20429;-61
2023/03/02 05:15:32;;;;;;;148.90;59.13;;;;;;;-3.06;100.00;159780.06;5067715;28;20106;-61
2023/03/02 05:17:58;;;;;;;148.02;51.63;;;;;;;-3.19;100.00;159748.00;5063104;28;20472;-61
2023/03/02 05:20:26;;;;;;;127.10;54.35;;;;;;;-3.13;100.00;159761.34;5067039;28;20036;-61
2023/03/02 05:22:53;;;;;;;147.45;58.75;;;;;;;-3.10;100.00;159769.41;5060784;28;20096;-61
2023/03/02 05:25:19;;;;;;;135.90;54.60;;;;;;;-3.10;100.00;159769.41;5069094;28;20511;-60
2023/03/02 05:27:44;;;;;;;128.45;55.88;;;;;;;-3.10;100.00;159769.41;5069782;28;20032;-60
2023/03/02 05:30:10;;;;;;;132.02;52.25;;;;;;;-3.07;100.00;159777.41;5069135;28;20102;-60
2023/03/02 05:32:35;;;;;;;143.63;59.13;;;;;;;-3.09;100.00;159772.09;5069873;28;20070;-60
2023/03/02 05:35:01;;;;;;;143.25;50.10;;;;;;;-3.15;100.00;159756.00;5069300;28;20611;-60
2023/03/02 05:37:26;;;;;;;142.95;61.13;;;;;;;-3.19;100.00;159748.00;5070442;28;20059;-60
2023/03/02 05:39:51;;;;;;;144.15;59.60;;;;;;;-3.21;100.00;159742.66;5066791;28;20071;-60
2023/03/02 05:42:17;;;;;;;140.38;61.38;;;;;;;-3.20;100.00;159743.97;5069880;28;20059;-60
2023/03/02 05:44:42;;;;;;;124.43;52.90;;;;;;;-3.19;100.00;159748.00;5068658;28;20041;-60
2023/03/02 05:47:08;;;;;;;135.93;57.40;;;;;;;-3.19;100.00;159748.00;5070173;28;20032;-60
2023/03/02 05:49:33;;;;;;;142.68;54.97;;;;;;;-3.15;100.00;159756.00;5068985;28;20025;-59
2023/03/02 05:51:58;;;;;;;137.23;56.40;;;;;;;-3.12;100.00;159764.03;5070629;28;20028;-60
2023/03/02 05:54:24;;;;;;;151.32;57.30;;;;;;;-3.16;100.00;159753.38;5070310;28;20027;-60
2023/03/02 05:56:49;;;;;;;136.43;58.05;;;;;;;-3.20;100.00;159745.31;5068686;28;20041;-60
2023/03/02 05:59:14;;;;;;;134.65;54.63;;;;;;;-3.25;100.00;159730.59;5070573;28;20020;-60
2023/03/02 06:01:40;;;;;;;140.27;54.60;;;;;;;-3.32;100.00;159711.91;5068064;28;20071;-60
2023/03/02 06:04:05;;;;;;;127.97;51.72;;;;;;;-3.42;100.00;159686.50;5070406;28;20605;-60
2023/03/02 06:06:31;;;;;;;147.55;60.30;;;;;;;-3.40;100.00;159691.88;5068498;28;20041;-60
2023/03/02 06:08:56;;;;;;;148.18;56.75;;;;;;;-3.51;100.00;159665.13;5070444;28;20032;-60
2023/03/02 06:11:21;;;;;;;143.73;56.95;;;;;;;-3.55;100.00;159654.44;5068180;28;20056;-60
2023/03/02 06:13:47;;;;;;;138.85;56.78;;;;;;;-3.61;100.00;159638.38;5069940;28;20029;-60
2023/03/02 06:16:12;;;;;;;131.30;54.35;;;;;;;-3.56;100.00;159651.78;5068475;28;20040;-60
2023/03/02 06:18:37;;;;;;;143.00;56.40;;;;;;;-3.54;100.00;159657.06;5064689;28;20023;-60
2023/03/02 06:21:03;;;;;;;161.48;63.15;;;;;;;-3.46;100.00;159675.84;5068194;28;20049;-60
2023/03/02 06:23:29;;;;;;;150.90;58.97;;;;;;;-3.47;100.00;159673.16;5069538;28;20039;-60
2023/03/02 06:25:55;;;;;;;133.32;55.30;;;;;;;-3.47;100.00;159673.16;5068298;28;20049;-60
2023/03/02 06:28:20;;;;;;;148.57;60.05;;;;;;;-3.46;100.00;159675.84;5070877;28;20024;-60
2023/03/02 06:30:47;;;;;;;140.18;57.40;;;;;;;-3.42;100.00;159686.50;5068142;28;20063;-60
2023/03/02 06:33:14;;;;;;;158.25;62.58;;;;;;;-3.40;100.00;159693.19;5070017;28;20414;-60
2023/03/02 06:35:40;;;;;;;142.52;59.22;;;;;;;-3.36;100.00;159702.53;5068034;28;20380;-60
2023/03/02 06:38:05;;;;;;;154.90;65.18;;;;;;;-3.38;100.00;159697.19;5068670;28;20028;-60
2023/03/02 06:40:31;;;;;;;151.15;59.45;;;;;;;-3.33;100.00;159710.59;5068017;28;20032;-59
2023/03/02 06:42:59;;;;;;;141.85;54.45;;;;;;;-3.31;100.00;159715.91;5070024;28;20526;-60
2023/03/02 06:45:24;;;;;;;156.52;63.00;;;;;;;-3.13;100.00;159761.34;5065935;28;20071;-60
2023/03/02 06:47:49;;;;;;;157.70;58.47;;;;;;;-2.98;100.00;159801.47;5071865;28;20387;-60
2023/03/02 06:50:15;;;;;;;142.85;57.58;;;;;;;-2.81;100.00;159844.28;5071592;28;20037;-60
2023/03/02 06:52:40;;;;;;;146.25;61.03;;;;;;;-2.65;100.00;159887.09;5073178;28;20025;-60
2023/03/02 06:55:06;;;;;;;142.25;58.10;;;;;;;-2.51;100.00;159921.84;5071476;28;20491;-60
2023/03/02 06:57:34;;;;;;;157.23;61.97;;;;;;;-2.41;100.00;159948.56;5072579;28;20024;-60
2023/03/02 07:00:08;;;;;;;142.90;57.47;;;;;;;-2.29;100.00;159980.72;5071371;28;20032;-60
2023/03/02 07:02:35;;;;;;;130.60;58.78;;;;;;;-2.20;100.00;160002.13;5072800;28;20135;-60
2023/03/02 07:05:00;;;;;;;151.10;56.40;;;;;;;-2.13;100.00;160022.16;5071545;28;20037;-60
2023/03/02 07:07:26;;;;;;;134.45;60.22;;;;;;;-2.05;100.00;160042.25;5072892;28;20332;-60
2023/03/02 07:09:51;;;;;;;129.40;57.45;;;;;;;-2.14;100.00;160018.16;5071270;28;20024;-60
2023/03/02 07:12:16;;;;;;;127.20;50.75;;;;;;;-1.90;100.00;160081.03;5072890;28;20494;-60
2023/03/02 07:14:42;;;;;;;118.93;53.45;;;;;;;-1.81;100.00;160103.78;5070843;28;20020;-60
2023/03/02 07:17:07;;;;;;;114.25;55.95;;;;;;;-1.74;100.00;160122.50;5071801;28;20029;-60
2023/03/02 07:19:33;;;;;;;117.93;56.83;;;;;;;-1.60;100.00;160158.66;5071337;28;20040;-58
2023/03/02 07:21:58;;;;;;;107.63;54.15;;;;;;;-1.53;100.00;160176.09;5071577;28;20020;-60
2023/03/02 07:24:23;;;;;;;108.45;52.40;;;;;;;-1.44;100.00;160200.16;5072227;28;20024;-60
2023/03/02 07:26:49;;;;;;;102.30;54.17;;;;;;;-1.37;100.00;160218.88;5071092;28;20401;-60
2023/03/02 07:29:14;;;;;;;101.07;49.97;;;;;;;-1.25;100.00;160248.38;5072786;28;20028;-60
2023/03/02 07:31:42;;;;;;;104.97;53.88;;;;;;;-1.21;100.00;160259.06;5070717;28;20066;-60
2023/03/02 07:34:07;;;;;;;98.13;48.87;;;;;;;-1.07;100.00;160296.53;5072657;28;20021;-60
2023/03/02 07:36:33;;;;;;;96.32;44.28;;;;;;;-1.02;100.00;160309.97;5071169;28;20127;-60
2023/03/02 07:38:58;;;;;;;95.25;50.22;;;;;;;-0.89;100.00;160342.09;5072374;28;20098;-60
2023/03/02 07:41:23;;;;;;;96.25;50.53;;;;;;;-0.82;100.00;160360.84;5070798;28;20442;-60
2023/03/02 07:43:49;;;;;;;91.18;46.88;;;;;;;-0.87;100.00;160347.47;5071727;28;20546;-60
2023/03/02 07:46:14;;;;;;;100.53;44.85;;;;;;;-0.73;100.00;160384.94;5069986;28;20067;-60
2023/03/02 07:48:39;;;;;;;94.15;43.35;;;;;;;-0.65;100.00;160406.38;5072580;28;20086;-60
2023/03/02 07:51:05;;;;;;;90.88;44.38;;;;;;;-0.53;100.00;160435.84;5071058;28;20032;-60
2023/03/02 07:53:31;;;;;;;91.63;47.38;;;;;;;-0.49;100.00;160446.56;5071839;28;20111;-60
2023/03/02 07:55:56;;;;;;;83.75;42.55;;;;;;;-0.47;100.00;160451.91;5071088;28;20142;-60
2023/03/02 07:58:23;;;;;;;77.32;43.28;;;;;;;-0.32;100.00;160492.09;5072362;28;20035;-59
2023/03/02 08:00:48;;;;;;;77.93;40.35;;;;;;;-0.20;100.00;160521.59;5051861;28;20529;-59
2023/03/02 08:03:14;;;;;;;80.05;41.47;;;;;;;-0.19;100.00;160524.28;5072209;28;20064;-60
2023/03/02 08:05:39;;;;;;;77.78;42.80;;;;;;;-0.35;100.00;160484.09;5070349;28;20090;-59
2023/03/02 08:08:04;;;;;;;72.65;42.22;;;;;;;-0.23;100.00;160513.53;5071979;28;20078;-60
2023/03/02 08:10:33;;;;;;;85.55;43.20;;;;;;;-0.11;100.00;160545.69;5069855;28;20127;-60
2023/03/02 08:12:58;;;;;;;76.47;40.58;;;;;;;0.09;100.00;160596.63;5069275;28;20468;-60
2023/03/02 08:15:24;;;;;;;59.33;36.83;;;;;;;-0.05;100.00;160561.81;5070074;28;20036;-60
2023/03/02 08:17:49;;;;;;;70.97;39.65;;;;;;;0.09;100.00;160596.63;5071260;28;20425;-60
2023/03/02 08:20:15;;;;;;;68.65;39.30;;;;;;;0.17;100.00;160618.09;5070645;28;20044;-60
2023/03/02 08:22:40;;;;;;;58.05;37.00;;;;;;;0.14;100.00;160610.00;5071327;28;20020;-59
2023/03/02 08:25:06;;;;;;;56.33;34.95;;;;;;;0.18;100.00;160620.78;5070185;28;20072;-60
2023/03/02 08:27:31;;;;;;;59.83;34.75;;;;;;;0.18;100.00;160619.41;5071406;28;20050;-60
2023/03/02 08:29:56;;;;;;;60.20;38.20;;;;;;;0.22;100.00;160631.47;5069308;28;20036;-60
2023/03/02 08:32:22;;;;;;;60.90;39.92;;;;;;;0.37;100.00;160670.38;5070941;28;20391;-60
2023/03/02 08:34:50;;;;;;;54.13;35.97;;;;;;;0.43;100.00;160685.06;5069470;28;20054;-59
2023/03/02 08:37:17;;;;;;;59.50;35.63;;;;;;;0.43;100.00;160685.06;5070942;28;20471;-60
2023/03/02 08:39:42;;;;;;;62.47;39.72;;;;;;;0.58;100.00;160725.28;5069598;28;20024;-59
2023/03/02 08:42:07;;;;;;;55.25;32.40;;;;;;;0.63;100.00;160738.69;5070751;28;20395;-60
2023/03/02 08:44:32;;;;;;;65.43;39.97;;;;;;;0.92;100.00;160813.81;5070233;28;20032;-55
2023/03/02 08:46:58;;;;;;;60.90;35.45;;;;;;;1.13;100.00;160867.44;5071389;28;20021;-60
2023/03/02 08:49:23;;;;;;;57.22;35.97;;;;;;;1.78;100.00;161035.16;5070996;28;20039;-60
2023/03/02 08:51:52;;;;;;;51.90;33.65;;;;;;;2.59;100.00;161247.22;5069199;28;20033;-60
2023/03/02 08:54:18;;;;;;;51.15;34.03;;;;;;;3.12;100.00;161385.50;5071654;28;20032;-59
2023/03/02 08:56:43;;;;;;;56.53;35.20;;;;;;;3.48;100.00;161479.53;5068885;28;20048;-60
2023/03/02 08:59:11;;;;;;;64.22;32.20;;;;;;;3.53;100.00;161490.31;5071002;28;20016;-60
2023/03/02 09:01:38;;;;;;;52.15;34.13;;;;;;;3.71;100.00;161538.63;5069186;28;20086;-60
2023/03/02 09:04:05;;;;;;;48.80;30.02;;;;;;;3.78;100.00;161556.13;5071038;28;20098;-60
2023/03/02 09:06:34;;;;;;;41.08;28.05;;;;;;;3.58;100.00;161503.72;5068900;28;20040;-60
2023/03/02 09:08:59;;;;;;;51.63;33.38;;;;;;;3.98;100.00;161608.53;5071062;28;20025;-60
2023/03/02 09:11:26;;;;;;;39.17;27.45;;;;;;;3.87;100.00;161578.97;5069214;28;20040;-60
2023/03/02 09:13:52;;;;;;;36.80;22.98;;;;;;;3.77;100.00;161554.75;5070243;28;20481;-60
2023/03/02 09:16:19;;;;;;;37.60;24.80;;;;;;;3.75;100.00;161549.41;5069505;28;20053;-60
2023/03/02 09:18:44;;;;;;;39.03;25.83;;;;;;;4.00;100.00;161612.56;5070947;28;20050;-60
2023/03/02 09:21:10;;;;;;;46.35;30.70;;;;;;;4.17;100.00;161656.91;5069096;28;20044;-60
2023/03/02 09:23:35;;;;;;;35.30;25.90;;;;;;;4.50;100.00;161742.97;5070609;28;20024;-60
2023/03/02 09:26:01;;;;;;;36.03;25.35;;;;;;;5.32;100.00;161956.75;5069235;28;20044;-60
2023/03/02 09:28:26;;;;;;;30.15;25.65;;;;;;;5.94;100.00;162119.53;5070587;28;20119;-60
2023/03/02 09:31:00;;;;;;;39.58;26.15;;;;;;;5.87;100.00;162100.72;5069084;28;20047;-60
2023/03/02 09:33:26;;;;;;;37.17;24.77;;;;;;;6.25;100.00;162200.34;5069070;28;20013;-60
2023/03/02 09:35:51;;;;;;;32.40;23.52;;;;;;;5.91;100.00;162111.50;5067069;28;20071;-60
2023/03/02 09:38:18;;;;;;;37.78;25.13;;;;;;;5.64;100.00;162041.50;5070393;28;20480;-60
2023/03/02 09:40:52;;;;;;;32.50;21.42;;;;;;;5.77;100.00;162073.81;5067510;28;20422;-60
2023/03/02 09:43:35;;;;;;;30.48;22.00;;;;;;;5.20;100.00;161925.81;5069960;28;20456;-60
2023/03/02 09:46:16;;;;;;;30.25;21.38;;;;;;;5.39;100.00;161975.59;5069020;28;20068;-60
2023/03/02 09:49:19;;;;;;;31.30;24.33;;;;;;;5.87;100.00;162102.06;5070479;28;20081;-60
2023/03/02 09:52:07;;;;;;;28.52;21.58;;;;;;;5.99;100.00;162133.09;5068613;28;20040;-60
2023/03/02 09:54:33;;;;;;;32.00;21.90;;;;;;;6.65;100.00;162305.38;5070682;28;20036;-60
2023/03/02 09:56:59;;;;;;;32.22;22.55;;;;;;;6.53;100.00;162271.72;5069163;28;20516;-60
2023/03/02 09:59:38;;;;;;;23.98;19.20;;;;;;;6.50;100.00;162264.97;5070207;28;20029;-60
2023/03/02 10:02:24;;;;;;;28.58;20.23;;;;;;;5.94;100.00;162119.53;5069205;28;20492;-60
2023/03/02 10:04:53;;;;;;;26.30;21.20;;;;;;;6.25;100.00;162199.03;5068293;28;20045;-60
2023/03/02 10:07:21;;;;;;;28.35;21.25;;;;;;;6.73;100.00;162324.22;5070147;28;20104;-60
2023/03/02 10:09:47;;;;;;;23.80;18.60;;;;;;;7.60;100.00;162553.16;5068804;28;20027;-59
2023/03/02 10:12:41;;;;;;;25.88;20.33;;;;;;;7.73;100.00;162585.47;5070251;28;20099;-60
2023/03/02 10:15:15;;;;;;;26.33;19.08;;;;;;;7.70;100.00;162577.44;5069018;28;20043;-60
2023/03/02 10:18:23;;;;;;;22.52;18.55;;;;;;;7.82;100.00;162609.75;5070141;28;20035;-60
2023/03/02 10:20:58;;;;;;;25.67;19.23;;;;;;;8.31;100.00;162737.78;5051950;28;20041;-60
2023/03/02 10:23:56;;;;;;;20.85;16.85;;;;;;;8.09;100.00;162679.81;5071765;28;20067;-60
2023/03/02 10:26:39;;;;;;;21.13;16.50;;;;;;;7.61;100.00;162555.88;5072276;28;20036;-60
2023/03/02 10:29:31;;;;;;;20.45;15.50;;;;;;;8.28;100.00;162728.34;5073451;28;20059;-59
2023/03/02 10:32:05;;;;;;;19.88;15.77;;;;;;;8.34;100.00;162745.84;5072080;28;20059;-59
2023/03/02 10:34:30;;;;;;;22.35;16.88;;;;;;;8.38;100.00;162756.66;5071934;28;20104;-60
2023/03/02 10:36:57;;;;;;;19.60;16.08;;;;;;;8.01;100.00;162658.22;5073894;28;20021;-59
2023/03/02 10:39:22;;;;;;;18.15;15.65;;;;;;;8.07;100.00;162674.44;5073677;28;20107;-59
2023/03/02 10:42:17;;;;;;;31.00;16.83;;;;;;;8.26;100.00;162725.63;5071110;28;20368;-60
2023/03/02 10:44:49;;;;;;;19.95;15.07;;;;;;;8.47;100.00;162779.59;5069568;28;20068;-59
2023/03/02 10:47:23;;;;;;;17.35;15.52;;;;;;;8.21;100.00;162712.19;5073585;28;20025;-59
2023/03/02 10:49:49;;;;;;;21.58;16.02;;;;;;;9.12;100.00;162949.47;5071871;28;20066;-60
2023/03/02 10:52:17;;;;;;;16.33;13.32;;;;;;;8.24;100.00;162720.25;5073681;28;20476;-60
2023/03/02 10:54:43;;;;;;;21.85;16.77;;;;;;;7.18;100.00;162442.72;5072072;28;20031;-59
2023/03/02 10:57:28;;;;;;;20.90;15.18;;;;;;;7.84;100.00;162615.16;5073206;28;20028;-60
2023/03/02 11:00:00;;;;;;;20.23;15.23;;;;;;;7.80;100.00;162604.34;5071904;28;20396;-59
2023/03/02 11:02:28;;;;;;;20.65;16.35;;;;;;;7.66;100.00;162566.63;5073628;28;20047;-59
2023/03/02 11:05:21;;;;;;;19.35;16.38;;;;;;;8.53;100.00;162795.75;5071306;28;20052;-60